sensor_id;sensor_type;location;lat;lon;timestamp;temperature;humidity
39427;DHT22;25938;48.470;1.486;2023-04-25T00:02:02;17.00;62.00
39427;DHT22;25938;48.470;1.486;2023-04-25T00:04:28;17.00;62.00
39427;DHT22;25938;48.470;1.486;2023-04-25T00:06:55;17.00;61.90
39427;DHT22;25938;48.470;1.486;2023-04-25T00:09:21;17.00;61.80
39427;DHT22;25938;48.470;1.486;2023-04-25T00:11:47;17.00;61.80
39427;DHT22;25938;48.470;1.486;2023-04-25T00:14:13;17.00;61.70
39427;DHT22;25938;48.470;1.486;2023-04-25T00:16:38;17.00;61.60
39427;DHT22;25938;48.470;1.486;2023-04-25T00:19:04;17.00;61.50
39427;DHT22;25938;48.470;1.486;2023-04-25T00:21:30;17.00;61.40
39427;DHT22;25938;48.470;1.486;2023-04-25T00:23:56;17.00;61.40
39427;DHT22;25938;48.470;1.486;2023-04-25T00:26:22;17.00;61.30
39427;DHT22;25938;48.470;1.486;2023-04-25T00:28:48;17.00;61.20
39427;DHT22;25938;48.470;1.486;2023-04-25T00:31:14;17.00;61.10
39427;DHT22;25938;48.470;1.486;2023-04-25T00:33:40;17.00;61.00
39427;DHT22;25938;48.470;1.486;2023-04-25T00:36:06;16.90;60.80
39427;DHT22;25938;48.470;1.486;2023-04-25T00:38:32;16.90;60.70
39427;DHT22;25938;48.470;1.486;2023-04-25T00:40:57;16.90;60.60
39427;DHT22;25938;48.470;1.486;2023-04-25T00:43:26;16.90;60.50
39427;DHT22;25938;48.470;1.486;2023-04-25T00:45:52;16.90;60.40
39427;DHT22;25938;48.470;1.486;2023-04-25T00:48:19;16.90;60.40
39427;DHT22;25938;48.470;1.486;2023-04-25T00:50:52;16.90;60.30
39427;DHT22;25938;48.470;1.486;2023-04-25T00:53:20;16.90;60.10
39427;DHT22;25938;48.470;1.486;2023-04-25T00:55:46;16.90;60.00
39427;DHT22;25938;48.470;1.486;2023-04-25T00:58:11;16.90;60.00
39427;DHT22;25938;48.470;1.486;2023-04-25T01:00:37;16.90;59.90
39427;DHT22;25938;48.470;1.486;2023-04-25T01:03:03;16.90;59.90
39427;DHT22;25938;48.470;1.486;2023-04-25T01:05:29;16.90;59.90
39427;DHT22;25938;48.470;1.486;2023-04-25T01:07:55;16.90;59.80
39427;DHT22;25938;48.470;1.486;2023-04-25T01:10:21;16.90;59.70
39427;DHT22;25938;48.470;1.486;2023-04-25T01:12:47;16.90;59.60
39427;DHT22;25938;48.470;1.486;2023-04-25T01:15:12;16.80;59.60
39427;DHT22;25938;48.470;1.486;2023-04-25T01:17:38;16.80;59.50
39427;DHT22;25938;48.470;1.486;2023-04-25T01:20:07;16.80;59.40
39427;DHT22;25938;48.470;1.486;2023-04-25T01:22:34;16.80;59.30
39427;DHT22;25938;48.470;1.486;2023-04-25T01:25:00;16.80;59.30
39427;DHT22;25938;48.470;1.486;2023-04-25T01:27:27;16.80;59.10
39427;DHT22;25938;48.470;1.486;2023-04-25T01:29:54;16.80;59.00
39427;DHT22;25938;48.470;1.486;2023-04-25T01:32:21;16.80;59.00
39427;DHT22;25938;48.470;1.486;2023-04-25T01:34:47;16.80;58.90
39427;DHT22;25938;48.470;1.486;2023-04-25T01:37:13;16.80;58.90
39427;DHT22;25938;48.470;1.486;2023-04-25T01:39:38;16.80;58.90
39427;DHT22;25938;48.470;1.486;2023-04-25T01:42:04;16.80;58.80
39427;DHT22;25938;48.470;1.486;2023-04-25T01:44:30;16.80;58.70
39427;DHT22;25938;48.470;1.486;2023-04-25T01:46:55;16.80;58.70
39427;DHT22;25938;48.470;1.486;2023-04-25T01:49:21;16.80;58.70
39427;DHT22;25938;48.470;1.486;2023-04-25T01:51:47;16.80;58.70
39427;DHT22;25938;48.470;1.486;2023-04-25T01:54:13;16.70;58.60
39427;DHT22;25938;48.470;1.486;2023-04-25T01:56:39;16.70;58.50
39427;DHT22;25938;48.470;1.486;2023-04-25T01:59:05;16.70;58.50
39427;DHT22;25938;48.470;1.486;2023-04-25T02:01:32;16.70;58.40
39427;DHT22;25938;48.470;1.486;2023-04-25T02:03:58;16.70;58.30
39427;DHT22;25938;48.470;1.486;2023-04-25T02:06:23;16.70;58.30
39427;DHT22;25938;48.470;1.486;2023-04-25T02:08:49;16.70;58.30
39427;DHT22;25938;48.470;1.486;2023-04-25T02:11:15;16.70;58.30
39427;DHT22;25938;48.470;1.486;2023-04-25T02:13:41;16.70;58.20
39427;DHT22;25938;48.470;1.486;2023-04-25T02:16:06;16.70;58.20
39427;DHT22;25938;48.470;1.486;2023-04-25T02:18:32;16.70;58.10
39427;DHT22;25938;48.470;1.486;2023-04-25T02:20:59;16.70;58.10
39427;DHT22;25938;48.470;1.486;2023-04-25T02:23:25;16.70;58.00
39427;DHT22;25938;48.470;1.486;2023-04-25T02:25:51;16.60;57.90
39427;DHT22;25938;48.470;1.486;2023-04-25T02:28:17;16.60;57.90
39427;DHT22;25938;48.470;1.486;2023-04-25T02:30:42;16.60;57.90
39427;DHT22;25938;48.470;1.486;2023-04-25T02:33:08;16.60;57.80
39427;DHT22;25938;48.470;1.486;2023-04-25T02:35:34;16.60;57.80
39427;DHT22;25938;48.470;1.486;2023-04-25T02:38:00;16.60;57.70
39427;DHT22;25938;48.470;1.486;2023-04-25T02:40:26;16.60;57.70
39427;DHT22;25938;48.470;1.486;2023-04-25T02:42:51;16.60;57.70
39427;DHT22;25938;48.470;1.486;2023-04-25T02:45:17;16.60;57.70
39427;DHT22;25938;48.470;1.486;2023-04-25T02:47:43;16.60;57.70
39427;DHT22;25938;48.470;1.486;2023-04-25T02:50:08;16.60;57.70
39427;DHT22;25938;48.470;1.486;2023-04-25T02:52:34;16.60;57.70
39427;DHT22;25938;48.470;1.486;2023-04-25T02:55:00;16.60;57.70
39427;DHT22;25938;48.470;1.486;2023-04-25T02:57:26;16.60;57.70
39427;DHT22;25938;48.470;1.486;2023-04-25T02:59:51;16.60;57.70
39427;DHT22;25938;48.470;1.486;2023-04-25T03:02:17;16.60;57.70
39427;DHT22;25938;48.470;1.486;2023-04-25T03:04:42;16.60;57.70
39427;DHT22;25938;48.470;1.486;2023-04-25T03:07:08;16.60;57.80
39427;DHT22;25938;48.470;1.486;2023-04-25T03:09:34;16.60;57.70
39427;DHT22;25938;48.470;1.486;2023-04-25T03:12:00;16.60;57.70
39427;DHT22;25938;48.470;1.486;2023-04-25T03:14:25;16.50;57.70
39427;DHT22;25938;48.470;1.486;2023-04-25T03:16:51;16.50;57.70
39427;DHT22;25938;48.470;1.486;2023-04-25T03:19:16;16.50;57.60
39427;DHT22;25938;48.470;1.486;2023-04-25T03:21:42;16.50;57.60
39427;DHT22;25938;48.470;1.486;2023-04-25T03:24:09;16.50;57.60
39427;DHT22;25938;48.470;1.486;2023-04-25T03:26:36;16.50;57.50
39427;DHT22;25938;48.470;1.486;2023-04-25T03:29:02;16.50;57.50
39427;DHT22;25938;48.470;1.486;2023-04-25T03:31:27;16.50;57.50
39427;DHT22;25938;48.470;1.486;2023-04-25T03:33:53;16.50;57.50
39427;DHT22;25938;48.470;1.486;2023-04-25T03:36:18;16.50;57.40
39427;DHT22;25938;48.470;1.486;2023-04-25T03:38:44;16.50;57.50
39427;DHT22;25938;48.470;1.486;2023-04-25T03:41:10;16.50;57.40
39427;DHT22;25938;48.470;1.486;2023-04-25T03:43:36;16.50;57.40
39427;DHT22;25938;48.470;1.486;2023-04-25T03:46:01;16.50;57.40
39427;DHT22;25938;48.470;1.486;2023-04-25T03:48:27;16.50;57.30
39427;DHT22;25938;48.470;1.486;2023-04-25T03:50:54;16.50;57.30
39427;DHT22;25938;48.470;1.486;2023-04-25T03:53:19;16.50;57.30
39427;DHT22;25938;48.470;1.486;2023-04-25T03:55:45;16.40;57.20
39427;DHT22;25938;48.470;1.486;2023-04-25T03:58:11;16.40;57.10
39427;DHT22;25938;48.470;1.486;2023-04-25T04:00:37;16.40;57.10
39427;DHT22;25938;48.470;1.486;2023-04-25T04:03:02;16.40;57.10
39427;DHT22;25938;48.470;1.486;2023-04-25T04:05:28;16.40;57.10
39427;DHT22;25938;48.470;1.486;2023-04-25T04:07:54;16.40;57.10
39427;DHT22;25938;48.470;1.486;2023-04-25T04:10:20;16.40;57.00
39427;DHT22;25938;48.470;1.486;2023-04-25T04:12:46;16.40;57.00
39427;DHT22;25938;48.470;1.486;2023-04-25T04:15:12;16.40;56.90
39427;DHT22;25938;48.470;1.486;2023-04-25T04:17:38;16.40;56.90
39427;DHT22;25938;48.470;1.486;2023-04-25T04:20:04;16.40;56.90
39427;DHT22;25938;48.470;1.486;2023-04-25T04:22:31;16.30;56.80
39427;DHT22;25938;48.470;1.486;2023-04-25T04:24:57;16.40;56.80
39427;DHT22;25938;48.470;1.486;2023-04-25T04:27:23;16.40;56.80
39427;DHT22;25938;48.470;1.486;2023-04-25T04:29:49;16.40;56.70
39427;DHT22;25938;48.470;1.486;2023-04-25T04:32:16;16.30;56.70
39427;DHT22;25938;48.470;1.486;2023-04-25T04:34:42;16.30;56.70
39427;DHT22;25938;48.470;1.486;2023-04-25T04:37:08;16.30;56.70
39427;DHT22;25938;48.470;1.486;2023-04-25T04:39:35;16.30;56.70
39427;DHT22;25938;48.470;1.486;2023-04-25T04:42:01;16.30;56.70
39427;DHT22;25938;48.470;1.486;2023-04-25T04:44:30;16.30;56.70
39427;DHT22;25938;48.470;1.486;2023-04-25T04:46:58;16.30;56.70
39427;DHT22;25938;48.470;1.486;2023-04-25T04:49:23;16.30;56.80
39427;DHT22;25938;48.470;1.486;2023-04-25T04:51:49;16.30;56.80
39427;DHT22;25938;48.470;1.486;2023-04-25T04:54:15;16.30;56.80
39427;DHT22;25938;48.470;1.486;2023-04-25T04:56:40;16.30;56.90
39427;DHT22;25938;48.470;1.486;2023-04-25T04:59:07;16.30;56.90
39427;DHT22;25938;48.470;1.486;2023-04-25T05:01:32;16.30;56.90
39427;DHT22;25938;48.470;1.486;2023-04-25T05:04:00;16.30;56.90
39427;DHT22;25938;48.470;1.486;2023-04-25T05:06:27;16.30;56.90
39427;DHT22;25938;48.470;1.486;2023-04-25T05:08:54;16.30;57.00
39427;DHT22;25938;48.470;1.486;2023-04-25T05:11:20;16.30;57.00
39427;DHT22;25938;48.470;1.486;2023-04-25T05:13:46;16.30;57.00
39427;DHT22;25938;48.470;1.486;2023-04-25T05:16:12;16.20;57.00
39427;DHT22;25938;48.470;1.486;2023-04-25T05:18:39;16.30;57.20
39427;DHT22;25938;48.470;1.486;2023-04-25T05:21:05;16.30;57.30
39427;DHT22;25938;48.470;1.486;2023-04-25T05:23:32;16.20;57.30
39427;DHT22;25938;48.470;1.486;2023-04-25T05:25:57;16.30;57.50
39427;DHT22;25938;48.470;1.486;2023-04-25T05:28:23;16.30;57.50
39427;DHT22;25938;48.470;1.486;2023-04-25T05:30:49;16.20;57.50
39427;DHT22;25938;48.470;1.486;2023-04-25T05:33:15;16.20;57.60
39427;DHT22;25938;48.470;1.486;2023-04-25T05:35:40;16.20;57.60
39427;DHT22;25938;48.470;1.486;2023-04-25T05:38:06;16.20;57.70
39427;DHT22;25938;48.470;1.486;2023-04-25T05:40:32;16.30;57.80
39427;DHT22;25938;48.470;1.486;2023-04-25T05:42:57;16.20;57.90
39427;DHT22;25938;48.470;1.486;2023-04-25T05:45:23;16.20;57.90
39427;DHT22;25938;48.470;1.486;2023-04-25T05:47:48;16.30;58.10
39427;DHT22;25938;48.470;1.486;2023-04-25T05:50:14;16.20;58.10
39427;DHT22;25938;48.470;1.486;2023-04-25T05:52:40;16.20;58.20
39427;DHT22;25938;48.470;1.486;2023-04-25T05:55:05;16.20;58.30
39427;DHT22;25938;48.470;1.486;2023-04-25T05:57:31;16.20;58.30
39427;DHT22;25938;48.470;1.486;2023-04-25T05:59:57;16.20;58.40
39427;DHT22;25938;48.470;1.486;2023-04-25T06:02:23;16.20;58.40
39427;DHT22;25938;48.470;1.486;2023-04-25T06:04:51;16.30;58.50
39427;DHT22;25938;48.470;1.486;2023-04-25T06:07:18;16.20;58.50
39427;DHT22;25938;48.470;1.486;2023-04-25T06:09:44;16.20;58.60
39427;DHT22;25938;48.470;1.486;2023-04-25T06:12:09;16.20;58.70
39427;DHT22;25938;48.470;1.486;2023-04-25T06:14:35;16.20;58.80
39427;DHT22;25938;48.470;1.486;2023-04-25T06:17:01;16.20;58.80
39427;DHT22;25938;48.470;1.486;2023-04-25T06:19:32;16.20;58.90
39427;DHT22;25938;48.470;1.486;2023-04-25T06:21:58;16.20;58.90
39427;DHT22;25938;48.470;1.486;2023-04-25T06:24:24;16.20;58.90
39427;DHT22;25938;48.470;1.486;2023-04-25T06:26:49;16.20;59.00
39427;DHT22;25938;48.470;1.486;2023-04-25T06:29:15;16.20;59.10
39427;DHT22;25938;48.470;1.486;2023-04-25T06:31:40;16.20;59.10
39427;DHT22;25938;48.470;1.486;2023-04-25T06:34:06;16.20;59.20
39427;DHT22;25938;48.470;1.486;2023-04-25T06:36:32;16.20;59.30
39427;DHT22;25938;48.470;1.486;2023-04-25T06:38:57;16.20;59.40
39427;DHT22;25938;48.470;1.486;2023-04-25T06:41:23;16.20;59.50
39427;DHT22;25938;48.470;1.486;2023-04-25T06:43:49;16.20;59.60
39427;DHT22;25938;48.470;1.486;2023-04-25T06:46:17;16.20;59.60
39427;DHT22;25938;48.470;1.486;2023-04-25T06:48:42;16.20;59.60
39427;DHT22;25938;48.470;1.486;2023-04-25T06:51:08;16.20;59.60
39427;DHT22;25938;48.470;1.486;2023-04-25T06:53:34;16.20;59.60
39427;DHT22;25938;48.470;1.486;2023-04-25T06:55:59;16.20;59.70
39427;DHT22;25938;48.470;1.486;2023-04-25T06:58:25;16.20;59.80
39427;DHT22;25938;48.470;1.486;2023-04-25T07:00:51;16.20;59.80
39427;DHT22;25938;48.470;1.486;2023-04-25T07:03:17;16.20;59.90
39427;DHT22;25938;48.470;1.486;2023-04-25T07:05:43;16.10;60.10
39427;DHT22;25938;48.470;1.486;2023-04-25T07:08:08;16.10;60.20
39427;DHT22;25938;48.470;1.486;2023-04-25T07:10:34;16.10;60.20
39427;DHT22;25938;48.470;1.486;2023-04-25T07:13:00;16.10;60.10
39427;DHT22;25938;48.470;1.486;2023-04-25T07:15:26;16.10;60.20
39427;DHT22;25938;48.470;1.486;2023-04-25T07:17:51;16.10;60.10
39427;DHT22;25938;48.470;1.486;2023-04-25T07:20:17;16.10;60.00
39427;DHT22;25938;48.470;1.486;2023-04-25T07:22:42;16.20;60.10
39427;DHT22;25938;48.470;1.486;2023-04-25T07:25:09;16.10;60.00
39427;DHT22;25938;48.470;1.486;2023-04-25T07:27:35;16.20;60.00
39427;DHT22;25938;48.470;1.486;2023-04-25T07:30:01;16.20;60.10
39427;DHT22;25938;48.470;1.486;2023-04-25T07:32:26;16.20;60.10
39427;DHT22;25938;48.470;1.486;2023-04-25T07:34:52;16.20;60.10
39427;DHT22;25938;48.470;1.486;2023-04-25T07:37:18;16.20;60.20
39427;DHT22;25938;48.470;1.486;2023-04-25T07:39:44;16.20;60.30
39427;DHT22;25938;48.470;1.486;2023-04-25T07:42:12;16.20;60.20
39427;DHT22;25938;48.470;1.486;2023-04-25T07:44:37;16.20;60.20
39427;DHT22;25938;48.470;1.486;2023-04-25T07:47:08;16.20;60.30
39427;DHT22;25938;48.470;1.486;2023-04-25T07:49:34;16.20;60.30
39427;DHT22;25938;48.470;1.486;2023-04-25T07:52:01;16.20;60.40
39427;DHT22;25938;48.470;1.486;2023-04-25T07:54:27;16.20;60.50
39427;DHT22;25938;48.470;1.486;2023-04-25T07:56:52;16.20;60.70
39427;DHT22;25938;48.470;1.486;2023-04-25T07:59:18;16.20;60.80
39427;DHT22;25938;48.470;1.486;2023-04-25T08:01:44;16.20;60.90
39427;DHT22;25938;48.470;1.486;2023-04-25T08:04:09;16.20;60.90
39427;DHT22;25938;48.470;1.486;2023-04-25T08:06:35;16.20;60.90
39427;DHT22;25938;48.470;1.486;2023-04-25T08:09:01;16.20;60.90
39427;DHT22;25938;48.470;1.486;2023-04-25T08:11:27;16.20;60.90
39427;DHT22;25938;48.470;1.486;2023-04-25T08:13:52;16.20;61.00
39427;DHT22;25938;48.470;1.486;2023-04-25T08:16:18;16.20;61.00
39427;DHT22;25938;48.470;1.486;2023-04-25T08:18:44;16.20;61.00
39427;DHT22;25938;48.470;1.486;2023-04-25T08:21:09;16.20;61.10
39427;DHT22;25938;48.470;1.486;2023-04-25T08:23:37;16.20;61.20
39427;DHT22;25938;48.470;1.486;2023-04-25T08:26:03;16.20;61.30
39427;DHT22;25938;48.470;1.486;2023-04-25T08:28:30;16.20;61.30
39427;DHT22;25938;48.470;1.486;2023-04-25T08:30:55;16.20;61.30
39427;DHT22;25938;48.470;1.486;2023-04-25T08:33:21;16.20;61.20
39427;DHT22;25938;48.470;1.486;2023-04-25T08:35:46;16.20;61.20
39427;DHT22;25938;48.470;1.486;2023-04-25T08:38:12;16.30;61.10
39427;DHT22;25938;48.470;1.486;2023-04-25T08:40:39;16.20;61.00
39427;DHT22;25938;48.470;1.486;2023-04-25T08:43:06;16.20;61.00
39427;DHT22;25938;48.470;1.486;2023-04-25T08:45:39;16.20;61.00
39427;DHT22;25938;48.470;1.486;2023-04-25T08:48:10;16.20;61.00
39427;DHT22;25938;48.470;1.486;2023-04-25T08:50:42;16.20;61.00
39427;DHT22;25938;48.470;1.486;2023-04-25T08:53:09;16.20;61.00
39427;DHT22;25938;48.470;1.486;2023-04-25T08:55:41;16.20;60.90
39427;DHT22;25938;48.470;1.486;2023-04-25T08:58:07;16.20;60.80
39427;DHT22;25938;48.470;1.486;2023-04-25T09:00:33;16.20;60.70
39427;DHT22;25938;48.470;1.486;2023-04-25T09:02:59;16.20;60.70
39427;DHT22;25938;48.470;1.486;2023-04-25T09:05:24;16.20;60.60
39427;DHT22;25938;48.470;1.486;2023-04-25T09:07:50;16.20;60.50
39427;DHT22;25938;48.470;1.486;2023-04-25T09:10:16;16.20;60.50
39427;DHT22;25938;48.470;1.486;2023-04-25T09:12:42;16.20;60.40
39427;DHT22;25938;48.470;1.486;2023-04-25T09:15:09;16.20;60.30
39427;DHT22;25938;48.470;1.486;2023-04-25T09:17:35;16.20;60.30
39427;DHT22;25938;48.470;1.486;2023-04-25T09:20:14;16.20;60.10
39427;DHT22;25938;48.470;1.486;2023-04-25T09:22:40;16.20;59.90
39427;DHT22;25938;48.470;1.486;2023-04-25T09:25:12;16.20;60.00
39427;DHT22;25938;48.470;1.486;2023-04-25T09:27:57;16.20;60.60
39427;DHT22;25938;48.470;1.486;2023-04-25T09:30:30;16.20;59.80
39427;DHT22;25938;48.470;1.486;2023-04-25T09:33:10;16.20;59.90
39427;DHT22;25938;48.470;1.486;2023-04-25T09:35:43;16.20;59.90
39427;DHT22;25938;48.470;1.486;2023-04-25T09:38:12;16.20;60.00
39427;DHT22;25938;48.470;1.486;2023-04-25T09:40:43;16.20;60.00
39427;DHT22;25938;48.470;1.486;2023-04-25T09:43:19;16.20;60.00
39427;DHT22;25938;48.470;1.486;2023-04-25T09:45:46;16.20;60.00
39427;DHT22;25938;48.470;1.486;2023-04-25T09:48:17;16.20;60.00
39427;DHT22;25938;48.470;1.486;2023-04-25T09:50:43;16.20;59.80
39427;DHT22;25938;48.470;1.486;2023-04-25T09:53:09;16.10;59.60
39427;DHT22;25938;48.470;1.486;2023-04-25T09:55:35;15.90;59.90
39427;DHT22;25938;48.470;1.486;2023-04-25T09:58:05;15.80;60.10
39427;DHT22;25938;48.470;1.486;2023-04-25T10:00:32;15.80;60.20
39427;DHT22;25938;48.470;1.486;2023-04-25T10:03:01;15.80;60.00
39427;DHT22;25938;48.470;1.486;2023-04-25T10:05:30;15.90;59.90
39427;DHT22;25938;48.470;1.486;2023-04-25T10:07:58;15.90;59.70
39427;DHT22;25938;48.470;1.486;2023-04-25T10:10:25;15.90;59.60
39427;DHT22;25938;48.470;1.486;2023-04-25T10:12:53;15.90;59.50
39427;DHT22;25938;48.470;1.486;2023-04-25T10:15:20;16.00;59.50
39427;DHT22;25938;48.470;1.486;2023-04-25T10:17:48;16.00;59.40
39427;DHT22;25938;48.470;1.486;2023-04-25T10:20:14;16.10;59.40
39427;DHT22;25938;48.470;1.486;2023-04-25T10:22:45;16.10;59.40
39427;DHT22;25938;48.470;1.486;2023-04-25T10:25:11;16.10;59.30
39427;DHT22;25938;48.470;1.486;2023-04-25T10:27:38;16.10;59.20
39427;DHT22;25938;48.470;1.486;2023-04-25T10:32:31;16.10;59.10
39427;DHT22;25938;48.470;1.486;2023-04-25T10:35:18;16.10;59.10
39427;DHT22;25938;48.470;1.486;2023-04-25T10:38:03;16.10;59.00
39427;DHT22;25938;48.470;1.486;2023-04-25T10:40:30;16.10;59.00
39427;DHT22;25938;48.470;1.486;2023-04-25T10:46:21;16.10;59.60
39427;DHT22;25938;48.470;1.486;2023-04-25T10:48:52;16.10;58.90
39427;DHT22;25938;48.470;1.486;2023-04-25T10:51:32;16.10;59.00
39427;DHT22;25938;48.470;1.486;2023-04-25T10:54:08;16.10;59.20
39427;DHT22;25938;48.470;1.486;2023-04-25T10:56:38;16.10;59.30
39427;DHT22;25938;48.470;1.486;2023-04-25T10:59:08;16.10;59.20
39427;DHT22;25938;48.470;1.486;2023-04-25T11:01:40;16.20;59.30
39427;DHT22;25938;48.470;1.486;2023-04-25T11:04:18;16.20;59.10
39427;DHT22;25938;48.470;1.486;2023-04-25T11:09:29;16.20;59.40
39427;DHT22;25938;48.470;1.486;2023-04-25T11:11:56;16.20;59.40
39427;DHT22;25938;48.470;1.486;2023-04-25T11:14:22;16.20;59.30
39427;DHT22;25938;48.470;1.486;2023-04-25T11:16:55;16.20;59.30
39427;DHT22;25938;48.470;1.486;2023-04-25T11:19:22;16.20;59.20
39427;DHT22;25938;48.470;1.486;2023-04-25T11:21:47;16.20;59.30
39427;DHT22;25938;48.470;1.486;2023-04-25T11:24:13;16.20;59.20
39427;DHT22;25938;48.470;1.486;2023-04-25T11:26:41;16.20;59.10
39427;DHT22;25938;48.470;1.486;2023-04-25T11:29:07;16.20;59.10
39427;DHT22;25938;48.470;1.486;2023-04-25T11:31:33;16.20;59.00
39427;DHT22;25938;48.470;1.486;2023-04-25T11:33:59;16.20;59.00
39427;DHT22;25938;48.470;1.486;2023-04-25T11:36:25;16.20;59.00
39427;DHT22;25938;48.470;1.486;2023-04-25T11:38:52;16.20;58.90
39427;DHT22;25938;48.470;1.486;2023-04-25T11:41:19;16.20;58.80
39427;DHT22;25938;48.470;1.486;2023-04-25T11:43:44;16.20;58.60
39427;DHT22;25938;48.470;1.486;2023-04-25T11:46:10;16.20;58.60
39427;DHT22;25938;48.470;1.486;2023-04-25T11:48:40;16.30;58.70
39427;DHT22;25938;48.470;1.486;2023-04-25T11:51:06;16.30;58.70
39427;DHT22;25938;48.470;1.486;2023-04-25T11:53:32;16.30;58.80
39427;DHT22;25938;48.470;1.486;2023-04-25T11:55:58;16.30;58.70
39427;DHT22;25938;48.470;1.486;2023-04-25T11:58:24;16.30;58.60
39427;DHT22;25938;48.470;1.486;2023-04-25T12:00:50;16.30;58.60
39427;DHT22;25938;48.470;1.486;2023-04-25T12:03:17;16.30;58.60
39427;DHT22;25938;48.470;1.486;2023-04-25T12:05:44;16.30;58.40
39427;DHT22;25938;48.470;1.486;2023-04-25T12:08:14;16.30;58.40
39427;DHT22;25938;48.470;1.486;2023-04-25T12:10:41;16.30;58.40
39427;DHT22;25938;48.470;1.486;2023-04-25T12:13:25;16.30;58.30
39427;DHT22;25938;48.470;1.486;2023-04-25T12:15:54;16.30;57.70
39427;DHT22;25938;48.470;1.486;2023-04-25T12:18:22;16.30;58.10
39427;DHT22;25938;48.470;1.486;2023-04-25T12:20:48;16.30;58.30
39427;DHT22;25938;48.470;1.486;2023-04-25T12:23:13;16.30;58.50
39427;DHT22;25938;48.470;1.486;2023-04-25T12:25:41;16.30;58.60
39427;DHT22;25938;48.470;1.486;2023-04-25T12:28:20;16.40;58.70
39427;DHT22;25938;48.470;1.486;2023-04-25T12:31:02;16.40;58.50
39427;DHT22;25938;48.470;1.486;2023-04-25T12:33:35;16.30;57.80
39427;DHT22;25938;48.470;1.486;2023-04-25T12:36:03;16.30;57.70
39427;DHT22;25938;48.470;1.486;2023-04-25T12:38:37;16.30;57.60
39427;DHT22;25938;48.470;1.486;2023-04-25T12:41:03;16.20;57.30
39427;DHT22;25938;48.470;1.486;2023-04-25T12:43:29;16.20;57.30
39427;DHT22;25938;48.470;1.486;2023-04-25T12:45:55;16.30;57.30
39427;DHT22;25938;48.470;1.486;2023-04-25T12:48:22;16.30;57.20
39427;DHT22;25938;48.470;1.486;2023-04-25T12:50:48;16.30;57.10
39427;DHT22;25938;48.470;1.486;2023-04-25T12:53:15;16.30;57.00
39427;DHT22;25938;48.470;1.486;2023-04-25T12:55:41;16.30;56.90
39427;DHT22;25938;48.470;1.486;2023-04-25T12:58:07;16.30;56.60
39427;DHT22;25938;48.470;1.486;2023-04-25T13:00:33;16.30;56.50
39427;DHT22;25938;48.470;1.486;2023-04-25T13:02:58;16.30;56.60
39427;DHT22;25938;48.470;1.486;2023-04-25T13:05:25;16.30;56.80
39427;DHT22;25938;48.470;1.486;2023-04-25T13:07:51;16.30;57.10
39427;DHT22;25938;48.470;1.486;2023-04-25T13:10:17;16.30;57.20
39427;DHT22;25938;48.470;1.486;2023-04-25T13:12:43;16.40;57.10
39427;DHT22;25938;48.470;1.486;2023-04-25T13:15:09;16.40;57.10
39427;DHT22;25938;48.470;1.486;2023-04-25T13:17:37;16.40;57.30
39427;DHT22;25938;48.470;1.486;2023-04-25T13:20:07;16.40;57.10
39427;DHT22;25938;48.470;1.486;2023-04-25T13:22:35;16.40;56.70
39427;DHT22;25938;48.470;1.486;2023-04-25T13:25:04;16.40;56.40
39427;DHT22;25938;48.470;1.486;2023-04-25T13:27:30;16.40;56.20
39427;DHT22;25938;48.470;1.486;2023-04-25T13:29:58;16.40;56.20
39427;DHT22;25938;48.470;1.486;2023-04-25T13:32:24;16.40;56.10
39427;DHT22;25938;48.470;1.486;2023-04-25T13:34:51;16.40;56.10
39427;DHT22;25938;48.470;1.486;2023-04-25T13:37:16;16.40;56.00
39427;DHT22;25938;48.470;1.486;2023-04-25T13:39:42;16.40;56.00
39427;DHT22;25938;48.470;1.486;2023-04-25T13:42:08;16.40;55.80
39427;DHT22;25938;48.470;1.486;2023-04-25T13:44:33;16.50;55.60
39427;DHT22;25938;48.470;1.486;2023-04-25T13:46:59;16.50;55.60
39427;DHT22;25938;48.470;1.486;2023-04-25T13:49:26;16.40;55.40
39427;DHT22;25938;48.470;1.486;2023-04-25T13:51:51;16.40;55.10
39427;DHT22;25938;48.470;1.486;2023-04-25T13:54:17;16.40;55.00
39427;DHT22;25938;48.470;1.486;2023-04-25T13:56:43;16.50;54.90
39427;DHT22;25938;48.470;1.486;2023-04-25T13:59:08;16.50;54.80
39427;DHT22;25938;48.470;1.486;2023-04-25T14:01:34;16.50;54.70
39427;DHT22;25938;48.470;1.486;2023-04-25T14:04:01;16.50;54.70
39427;DHT22;25938;48.470;1.486;2023-04-25T14:06:27;16.50;54.80
39427;DHT22;25938;48.470;1.486;2023-04-25T14:08:53;16.40;54.80
39427;DHT22;25938;48.470;1.486;2023-04-25T14:11:19;16.50;54.80
39427;DHT22;25938;48.470;1.486;2023-04-25T14:13:45;16.50;54.80
39427;DHT22;25938;48.470;1.486;2023-04-25T14:16:11;16.50;54.70
39427;DHT22;25938;48.470;1.486;2023-04-25T14:18:36;16.50;54.70
39427;DHT22;25938;48.470;1.486;2023-04-25T14:21:02;16.50;54.50
39427;DHT22;25938;48.470;1.486;2023-04-25T14:23:28;16.50;54.30
39427;DHT22;25938;48.470;1.486;2023-04-25T14:25:53;16.50;54.20
39427;DHT22;25938;48.470;1.486;2023-04-25T14:28:19;16.50;54.10
39427;DHT22;25938;48.470;1.486;2023-04-25T14:30:45;16.50;54.00
39427;DHT22;25938;48.470;1.486;2023-04-25T14:33:10;16.50;54.00
39427;DHT22;25938;48.470;1.486;2023-04-25T14:35:37;16.50;53.90
39427;DHT22;25938;48.470;1.486;2023-04-25T14:38:03;16.50;53.80
39427;DHT22;25938;48.470;1.486;2023-04-25T14:40:28;16.50;53.90
39427;DHT22;25938;48.470;1.486;2023-04-25T14:42:54;16.50;53.80
39427;DHT22;25938;48.470;1.486;2023-04-25T14:45:20;16.50;53.70
39427;DHT22;25938;48.470;1.486;2023-04-25T14:47:45;16.50;53.80
39427;DHT22;25938;48.470;1.486;2023-04-25T14:50:11;16.50;53.50
39427;DHT22;25938;48.470;1.486;2023-04-25T14:52:37;16.50;53.00
39427;DHT22;25938;48.470;1.486;2023-04-25T14:55:03;16.40;53.00
39427;DHT22;25938;48.470;1.486;2023-04-25T14:57:34;16.40;53.10
39427;DHT22;25938;48.470;1.486;2023-04-25T14:59:59;16.40;53.20
39427;DHT22;25938;48.470;1.486;2023-04-25T15:02:26;16.40;53.20
39427;DHT22;25938;48.470;1.486;2023-04-25T15:04:52;16.40;53.20
39427;DHT22;25938;48.470;1.486;2023-04-25T15:07:18;16.50;53.10
39427;DHT22;25938;48.470;1.486;2023-04-25T15:09:43;16.50;52.90
39427;DHT22;25938;48.470;1.486;2023-04-25T15:12:09;16.50;52.80
39427;DHT22;25938;48.470;1.486;2023-04-25T15:14:35;16.50;52.80
39427;DHT22;25938;48.470;1.486;2023-04-25T15:17:01;16.50;52.80
39427;DHT22;25938;48.470;1.486;2023-04-25T15:19:27;16.50;52.80
39427;DHT22;25938;48.470;1.486;2023-04-25T15:21:53;16.50;52.70
39427;DHT22;25938;48.470;1.486;2023-04-25T15:24:19;16.50;52.60
39427;DHT22;25938;48.470;1.486;2023-04-25T15:26:45;16.60;52.70
39427;DHT22;25938;48.470;1.486;2023-04-25T15:29:11;16.50;52.50
39427;DHT22;25938;48.470;1.486;2023-04-25T15:31:37;16.50;52.40
39427;DHT22;25938;48.470;1.486;2023-04-25T15:34:03;16.60;52.30
39427;DHT22;25938;48.470;1.486;2023-04-25T15:36:29;16.60;52.20